Time;durP1;ratioP1;P1;durP2;ratioP2;P2;SDS_P1;SDS_P2;PMS_P1;PMS_P2;Temp;Humidity;BMP_temperature;BMP_pressure;BME280_temperature;BME280_humidity;BME280_pressure;Samples;Min_cycle;Max_cycle;Signal;HPM_P1;HPM_P2
2021/09/12 00:00:32;;;;;;;12.47;11.27;;;16.00;99.90;;;;;;6194207;28;20209;-70
2021/09/12 00:03:34;;;;;;;12.10;11.00;;;16.00;99.90;;;;;;6197292;28;20224;-70
2021/09/12 00:06:37;;;;;;;12.40;11.20;;;15.90;99.90;;;;;;6200325;28;20182;-70
2021/09/12 00:09:41;;;;;;;12.27;11.13;;;15.80;99.90;;;;;;6200543;28;20283;-69
2021/09/12 00:12:43;;;;;;;11.43;10.33;;;15.70;99.90;;;;;;6204276;28;20204;-69
2021/09/12 00:15:45;;;;;;;11.50;10.40;;;15.70;99.90;;;;;;6213822;28;20208;-69
2021/09/12 00:18:48;;;;;;;11.83;10.27;;;15.60;99.90;;;;;;6201115;28;20192;-69
2021/09/12 00:21:50;;;;;;;12.03;10.83;;;15.60;99.90;;;;;;6198822;28;20189;-69
2021/09/12 00:24:53;;;;;;;12.53;11.43;;;15.50;99.90;;;;;;6198687;28;20202;-69
2021/09/12 00:27:55;;;;;;;12.50;11.10;;;15.40;99.90;;;;;;6198415;28;20252;-69
2021/09/12 00:30:57;;;;;;;12.47;10.87;;;15.40;99.90;;;;;;6199881;28;20323;-69
2021/09/12 00:33:59;;;;;;;13.27;12.07;;;15.30;99.90;;;;;;6199602;28;20256;-69
2021/09/12 00:37:02;;;;;;;11.53;10.43;;;15.30;99.90;;;;;;6198416;28;20350;-69
2021/09/12 00:40:06;;;;;;;11.40;10.17;;;15.20;99.90;;;;;;6199593;28;20186;-70
2021/09/12 00:43:09;;;;;;;13.33;12.03;;;15.20;99.90;;;;;;6199588;28;20216;-69
2021/09/12 00:46:11;;;;;;;11.30;10.20;;;15.20;99.90;;;;;;6199502;28;20862;-69
2021/09/12 00:49:18;;;;;;;13.37;11.97;;;15.10;99.90;;;;;;6198110;28;20200;-69
2021/09/12 00:52:22;;;;;;;13.53;12.00;;;15.00;99.90;;;;;;6199970;28;20194;-69
2021/09/12 00:55:25;;;;;;;13.47;12.07;;;15.00;99.90;;;;;;6197839;28;20217;-70
2021/09/12 00:58:28;;;;;;;12.07;10.93;;;15.00;99.90;;;;;;6197727;28;20253;-69
2021/09/12 01:01:32;;;;;;;12.23;11.07;;;15.00;99.90;;;;;;6199025;28;20212;-69
2021/09/12 01:04:37;;;;;;;12.60;11.27;;;14.90;99.90;;;;;;6198789;28;20221;-70
2021/09/12 01:07:40;;;;;;;12.10;11.00;;;14.90;99.90;;;;;;6197793;28;20194;-69
2021/09/12 01:10:42;;;;;;;11.57;10.57;;;14.90;99.90;;;;;;6197800;28;20677;-70
2021/09/12 01:13:44;;;;;;;10.67;9.57;;;14.80;99.90;;;;;;6198612;28;20200;-69
2021/09/12 01:16:46;;;;;;;13.10;11.70;;;14.80;99.90;;;;;;6205813;28;20201;-69
2021/09/12 01:19:49;;;;;;;12.13;10.93;;;14.80;99.90;;;;;;6198632;28;20197;-70
2021/09/12 01:22:51;;;;;;;11.90;10.63;;;14.80;99.90;;;;;;6198694;28;20182;-69
2021/09/12 01:25:57;;;;;;;11.93;10.63;;;14.80;99.90;;;;;;6197236;28;20676;-69
2021/09/12 01:28:59;;;;;;;11.57;9.93;;;14.80;99.90;;;;;;6197356;28;20689;-70
2021/09/12 01:32:02;;;;;;;12.43;11.23;;;14.80;99.90;;;;;;6197403;28;20704;-69
2021/09/12 01:35:06;;;;;;;12.50;11.30;;;14.80;99.90;;;;;;6198137;28;20212;-69
2021/09/12 01:38:08;;;;;;;11.27;10.17;;;14.80;99.90;;;;;;6189234;28;20202;-69
2021/09/12 01:41:10;;;;;;;12.40;11.20;;;14.80;99.90;;;;;;6193008;28;20657;-70
2021/09/12 01:44:13;;;;;;;10.97;9.97;;;14.70;99.90;;;;;;6198272;28;20197;-69
2021/09/12 01:47:15;;;;;;;12.57;11.37;;;14.70;99.90;;;;;;6198064;28;20224;-69
2021/09/12 01:50:18;;;;;;;11.27;10.13;;;14.70;99.90;;;;;;6197898;28;20211;-69
2021/09/12 01:53:20;;;;;;;12.43;11.13;;;14.60;99.90;;;;;;6196743;28;20661;-70
2021/09/12 01:56:23;;;;;;;12.67;11.40;;;14.60;99.90;;;;;;6196371;28;20220;-70
2021/09/12 01:59:25;;;;;;;11.57;10.47;;;14.50;99.90;;;;;;6197861;28;20288;-69
2021/09/12 02:02:27;;;;;;;12.10;10.90;;;14.50;99.90;;;;;;6180234;28;20236;-69
2021/09/12 02:05:29;;;;;;;12.07;10.97;;;14.40;99.90;;;;;;6197489;28;20201;-71
2021/09/12 02:08:32;;;;;;;11.83;10.73;;;14.40;99.90;;;;;;6196220;28;20206;-71
2021/09/12 02:11:34;;;;;;;12.67;11.47;;;14.30;99.90;;;;;;6197345;28;20190;-70
2021/09/12 02:14:36;;;;;;;12.20;11.00;;;14.30;99.90;;;;;;6202772;28;20212;-70
2021/09/12 02:17:38;;;;;;;11.63;10.53;;;14.30;99.90;;;;;;6212896;28;20185;-70
2021/09/12 02:20:40;;;;;;;12.33;11.10;;;14.20;99.90;;;;;;6197469;28;20201;-70
2021/09/12 02:23:43;;;;;;;10.73;9.73;;;14.20;99.90;;;;;;6197306;28;20234;-70
2021/09/12 02:26:45;;;;;;;11.70;10.60;;;14.20;99.90;;;;;;6211610;28;20224;-70
2021/09/12 02:29:47;;;;;;;11.50;10.43;;;14.20;99.90;;;;;;6196975;28;20232;-70
2021/09/12 02:32:49;;;;;;;13.03;11.63;;;14.10;99.90;;;;;;6195789;28;20352;-70
2021/09/12 02:35:52;;;;;;;13.23;11.93;;;14.10;99.90;;;;;;6196918;28;20633;-70
2021/09/12 02:38:54;;;;;;;13.63;11.37;;;14.00;99.90;;;;;;6196947;28;20193;-70
2021/09/12 02:41:56;;;;;;;12.50;11.20;;;14.00;99.90;;;;;;6196691;28;20194;-70
2021/09/12 02:44:58;;;;;;;12.57;11.37;;;14.10;99.90;;;;;;6196614;28;20197;-70
2021/09/12 02:48:01;;;;;;;12.53;11.30;;;14.00;99.90;;;;;;6196687;28;20415;-70
2021/09/12 02:51:04;;;;;;;12.30;11.10;;;14.00;99.90;;;;;;6196828;28;20564;-70
2021/09/12 02:54:06;;;;;;;12.60;11.50;;;14.00;99.90;;;;;;6196511;28;20197;-70
2021/09/12 02:57:08;;;;;;;12.93;11.63;;;14.00;99.90;;;;;;6195357;28;20339;-70
2021/09/12 03:00:11;;;;;;;11.73;10.63;;;13.90;99.90;;;;;;6196560;28;20228;-70
2021/09/12 03:03:13;;;;;;;11.87;10.63;;;13.90;99.90;;;;;;6195971;28;20229;-70
2021/09/12 03:06:16;;;;;;;12.37;11.17;;;13.90;99.90;;;;;;6196266;28;20232;-70
2021/09/12 03:09:18;;;;;;;12.87;11.57;;;13.90;99.90;;;;;;6196229;28;20275;-70
2021/09/12 03:12:20;;;;;;;12.63;11.43;;;13.90;99.90;;;;;;6178814;28;20208;-70
2021/09/12 03:15:22;;;;;;;13.10;11.67;;;13.90;99.90;;;;;;6205942;28;20223;-71
2021/09/12 03:18:24;;;;;;;13.17;11.83;;;13.90;99.90;;;;;;6194776;28;20194;-70
2021/09/12 03:21:27;;;;;;;11.57;10.47;;;13.80;99.90;;;;;;6195832;28;20268;-70
2021/09/12 03:24:29;;;;;;;11.30;10.20;;;13.80;99.90;;;;;;6195847;28;20328;-70
2021/09/12 03:27:31;;;;;;;11.27;10.13;;;13.80;99.90;;;;;;6194755;28;20181;-70
2021/09/12 03:30:33;;;;;;;11.73;10.43;;;13.80;99.90;;;;;;6195895;28;20212;-70
2021/09/12 03:33:36;;;;;;;11.20;9.77;;;13.80;99.90;;;;;;6195650;28;20657;-70
2021/09/12 03:36:38;;;;;;;12.00;10.80;;;13.80;99.90;;;;;;6194852;28;20201;-71
2021/09/12 03:39:40;;;;;;;11.57;10.40;;;13.70;99.90;;;;;;6195861;28;20211;-70
2021/09/12 03:42:42;;;;;;;12.73;10.43;;;13.70;99.90;;;;;;6195613;28;20186;-71
2021/09/12 03:45:44;;;;;;;10.33;9.33;;;13.70;99.90;;;;;;6195699;28;20204;-71
2021/09/12 03:48:47;;;;;;;11.70;10.60;;;13.70;99.90;;;;;;6194098;28;20204;-70
2021/09/12 03:51:49;;;;;;;11.37;10.10;;;13.70;99.90;;;;;;6195838;28;20193;-70
2021/09/12 03:54:51;;;;;;;11.73;10.53;;;13.70;99.90;;;;;;6195255;28;20228;-70
2021/09/12 03:57:53;;;;;;;12.60;9.90;;;13.70;99.90;;;;;;6195347;28;20327;-71
2021/09/12 04:00:56;;;;;;;12.53;9.87;;;13.70;99.90;;;;;;6210349;28;20760;-71
2021/09/12 04:03:59;;;;;;;11.83;10.50;;;13.60;99.90;;;;;;6205795;28;20229;-70
2021/09/12 04:07:01;;;;;;;11.10;10.00;;;13.60;99.90;;;;;;6195376;28;20216;-71
2021/09/12 04:10:05;;;;;;;11.53;10.43;;;13.70;99.90;;;;;;6195202;28;20197;-70
2021/09/12 04:13:07;;;;;;;11.50;10.40;;;13.70;99.90;;;;;;6195863;28;20196;-70
2021/09/12 04:16:10;;;;;;;12.97;11.67;;;13.70;99.90;;;;;;6211956;28;20216;-71
2021/09/12 04:19:12;;;;;;;11.43;10.33;;;13.70;99.90;;;;;;6218934;28;20348;-71
2021/09/12 04:22:14;;;;;;;10.50;9.50;;;13.70;99.90;;;;;;6193934;28;20210;-71
2021/09/12 04:25:16;;;;;;;12.60;11.37;;;13.70;99.90;;;;;;6195007;28;20551;-70
2021/09/12 04:28:19;;;;;;;12.17;10.97;;;13.70;99.90;;;;;;6193984;28;20186;-70
2021/09/12 04:31:21;;;;;;;12.73;11.43;;;13.80;99.90;;;;;;6195011;28;20275;-70
2021/09/12 04:34:23;;;;;;;13.20;11.83;;;13.80;99.90;;;;;;6194296;28;20629;-71
2021/09/12 04:37:25;;;;;;;12.73;11.47;;;13.80;99.90;;;;;;6185788;28;20209;-69
2021/09/12 04:40:28;;;;;;;13.63;12.23;;;13.90;99.90;;;;;;6191287;28;20567;-71
2021/09/12 04:43:30;;;;;;;14.90;12.77;;;13.90;99.90;;;;;;6195022;28;20193;-71
2021/09/12 04:46:32;;;;;;;13.27;11.97;;;14.00;99.90;;;;;;6194489;28;20193;-71
2021/09/12 04:49:34;;;;;;;14.53;13.13;;;14.00;99.90;;;;;;6197621;28;20607;-71
2021/09/12 04:52:37;;;;;;;12.97;11.77;;;14.10;99.90;;;;;;6198904;28;20293;-71
2021/09/12 04:55:39;;;;;;;13.33;12.00;;;14.10;99.90;;;;;;6197723;28;20216;-71
2021/09/12 04:58:41;;;;;;;13.93;12.33;;;14.20;99.90;;;;;;6197933;28;20190;-71
2021/09/12 05:01:43;;;;;;;14.03;12.63;;;14.20;99.90;;;;;;6181036;28;20665;-71
2021/09/12 05:04:46;;;;;;;13.10;11.80;;;14.30;99.90;;;;;;6198775;28;20225;-71
2021/09/12 05:07:48;;;;;;;13.60;12.30;;;14.30;99.90;;;;;;6198510;28;20216;-71
2021/09/12 05:10:50;;;;;;;15.00;13.07;;;14.40;99.90;;;;;;6198876;28;20197;-71
2021/09/12 05:13:53;;;;;;;14.43;12.93;;;14.40;99.90;;;;;;6197703;28;20268;-70
2021/09/12 05:16:55;;;;;;;14.83;13.07;;;14.40;99.90;;;;;;6212053;28;20213;-70
2021/09/12 05:19:57;;;;;;;15.43;12.83;;;14.50;99.90;;;;;;6197529;28;20447;-70
2021/09/12 05:22:59;;;;;;;14.57;13.13;;;14.50;99.90;;;;;;6198961;28;20213;-70
2021/09/12 05:26:01;;;;;;;16.47;13.27;;;14.60;99.90;;;;;;6198370;28;20197;-71
2021/09/12 05:29:04;;;;;;;14.53;13.13;;;14.70;99.90;;;;;;6196972;28;20586;-71
2021/09/12 05:32:06;;;;;;;14.27;12.97;;;14.70;99.90;;;;;;6197956;28;20202;-71
2021/09/12 05:35:09;;;;;;;15.43;13.83;;;14.80;99.90;;;;;;6197053;28;20263;-71
2021/09/12 05:38:11;;;;;;;14.87;13.43;;;14.90;99.90;;;;;;6197938;28;20328;-71
2021/09/12 05:41:13;;;;;;;15.13;13.73;;;14.90;99.90;;;;;;6197902;28;20190;-71
2021/09/12 05:44:16;;;;;;;16.47;14.67;;;15.00;99.90;;;;;;6180530;28;20196;-71
2021/09/12 05:47:18;;;;;;;15.93;14.33;;;15.10;99.90;;;;;;6197769;28;20265;-71
2021/09/12 05:50:20;;;;;;;16.40;14.77;;;15.20;99.90;;;;;;6196241;28;20601;-70
2021/09/12 05:53:24;;;;;;;15.83;14.23;;;15.30;99.90;;;;;;6196373;28;20197;-71
2021/09/12 05:56:26;;;;;;;17.83;15.20;;;15.40;99.90;;;;;;6197671;28;20213;-71
2021/09/12 05:59:28;;;;;;;16.50;14.93;;;15.50;99.90;;;;;;6196838;28;20213;-71
2021/09/12 06:02:31;;;;;;;15.80;14.13;;;15.60;99.90;;;;;;6196986;28;20320;-71
2021/09/12 06:05:33;;;;;;;16.03;14.53;;;15.80;99.90;;;;;;6196398;28;20209;-71
2021/09/12 06:08:36;;;;;;;14.67;13.07;;;15.90;99.90;;;;;;6197378;28;20204;-70
2021/09/12 06:11:38;;;;;;;15.47;13.97;;;16.00;99.90;;;;;;6197067;28;20213;-70
2021/09/12 06:14:40;;;;;;;14.23;12.90;;;16.10;99.90;;;;;;6200732;28;20997;-70
2021/09/12 06:17:43;;;;;;;12.93;11.73;;;16.20;99.90;;;;;;6179781;28;20204;-71
2021/09/12 06:20:45;;;;;;;13.80;12.50;;;16.40;99.90;;;;;;6187519;28;20735;-71
2021/09/12 06:23:47;;;;;;;11.63;10.53;;;16.50;99.90;;;;;;6197033;28;20190;-70
2021/09/12 06:26:49;;;;;;;11.67;10.60;;;16.60;99.90;;;;;;6196452;28;20189;-71
2021/09/12 06:29:51;;;;;;;11.33;10.23;;;16.80;99.90;;;;;;6196025;28;20200;-71
2021/09/12 06:32:54;;;;;;;12.07;10.77;;;16.90;99.90;;;;;;6196478;28;20199;-70
2021/09/12 06:35:56;;;;;;;10.90;9.90;;;16.90;99.90;;;;;;6205047;28;20209;-71
2021/09/12 06:38:58;;;;;;;9.73;8.83;;;17.00;99.90;;;;;;6200123;28;20739;-72
2021/09/12 06:42:01;;;;;;;9.80;9.00;;;17.20;99.90;;;;;;6211938;28;20259;-71
2021/09/12 06:45:04;;;;;;;8.63;7.93;;;17.30;99.90;;;;;;6195070;28;20193;-70
2021/09/12 06:48:06;;;;;;;9.40;8.50;;;17.40;99.90;;;;;;6211278;28;20683;-70
2021/09/12 06:51:11;;;;;;;9.20;8.17;;;17.60;99.90;;;;;;6195131;28;20662;-70
2021/09/12 06:54:13;;;;;;;6.97;6.33;;;17.70;99.90;;;;;;6196210;28;20194;-70
2021/09/12 06:57:15;;;;;;;6.20;5.70;;;17.80;99.90;;;;;;6195010;28;20220;-71
2021/09/12 07:00:17;;;;;;;6.20;5.70;;;18.00;99.90;;;;;;6177752;28;20343;-70
2021/09/12 07:03:20;;;;;;;5.60;5.00;;;18.20;99.90;;;;;;6189436;28;20225;-70
2021/09/12 07:06:22;;;;;;;5.30;4.73;;;18.40;99.90;;;;;;6195519;28;20671;-71
2021/09/12 07:09:26;;;;;;;5.03;4.53;;;18.50;99.90;;;;;;6195017;28;20201;-70
2021/09/12 07:12:28;;;;;;;5.40;4.90;;;18.70;99.90;;;;;;6195573;28;20212;-71
2021/09/12 07:15:30;;;;;;;4.33;4.03;;;18.80;99.90;;;;;;6206863;28;20219;-70
2021/09/12 07:18:32;;;;;;;5.27;4.63;;;19.00;99.90;;;;;;6204208;28;20223;-70
2021/09/12 07:21:35;;;;;;;5.43;4.93;;;19.10;99.90;;;;;;6195641;28;20200;-71
2021/09/12 07:24:39;;;;;;;4.70;4.13;;;19.30;99.90;;;;;;6195445;28;20192;-70
2021/09/12 07:27:41;;;;;;;4.03;3.73;;;19.50;99.90;;;;;;6210571;28;20201;-70
2021/09/12 07:30:44;;;;;;;4.43;4.03;;;19.70;99.90;;;;;;6194106;28;20217;-71
2021/09/12 07:33:46;;;;;;;4.00;3.60;;;19.90;99.90;;;;;;6195477;28;20197;-71
2021/09/12 07:36:48;;;;;;;4.63;4.23;;;20.20;99.90;;;;;;6186180;28;20217;-70
2021/09/12 07:39:50;;;;;;;4.57;4.17;;;20.50;99.90;;;;;;6191672;28;20188;-70
2021/09/12 07:42:54;;;;;;;4.47;4.07;;;20.70;99.90;;;;;;6196386;28;20188;-70
2021/09/12 07:45:56;;;;;;;5.33;4.00;;;21.00;99.90;;;;;;6193859;28;20200;-70
2021/09/12 07:48:58;;;;;;;3.80;3.50;;;21.40;99.90;;;;;;6195015;28;20197;-70
2021/09/12 07:52:03;;;;;;;3.43;3.13;;;21.70;99.90;;;;;;6177743;28;20208;-71
2021/09/12 07:55:05;;;;;;;3.90;3.50;;;22.00;99.90;;;;;;6193168;28;20573;-70
2021/09/12 07:58:08;;;;;;;4.30;3.73;;;22.20;99.90;;;;;;6195054;28;20276;-70
2021/09/12 08:01:12;;;;;;;3.67;3.37;;;22.50;99.90;;;;;;6177704;28;20217;-71
2021/09/12 08:04:15;;;;;;;2.80;2.60;;;22.70;99.90;;;;;;6194650;28;20237;-71
2021/09/12 08:07:17;;;;;;;3.77;3.30;;;23.00;99.90;;;;;;6185287;28;20566;-70
2021/09/12 08:10:21;;;;;;;3.57;3.00;;;23.30;99.90;;;;;;6186690;28;20518;-71
2021/09/12 08:13:24;;;;;;;4.30;3.37;;;23.50;99.90;;;;;;6209494;28;20220;-70
2021/09/12 08:16:26;;;;;;;3.60;3.10;;;23.60;99.90;;;;;;6204996;28;20296;-70
2021/09/12 08:19:28;;;;;;;3.23;2.87;;;23.40;99.90;;;;;;6194814;28;20280;-70
2021/09/12 08:22:30;;;;;;;3.33;3.03;;;23.10;99.90;;;;;;6194600;28;20185;-70
2021/09/12 08:25:33;;;;;;;2.70;2.50;;;23.10;99.90;;;;;;6214592;28;20663;-71
2021/09/12 08:29:00;;;;;;;2.80;2.57;;;23.20;99.90;;;;;;6177909;28;20198;-70
2021/09/12 08:32:03;;;;;;;2.67;2.47;;;23.50;99.90;;;;;;6214101;28;20204;-70
2021/09/12 08:35:05;;;;;;;2.77;2.57;;;23.90;99.90;;;;;;6206138;28;20216;-71
2021/09/12 08:38:08;;;;;;;2.97;2.67;;;24.30;98.70;;;;;;6213705;28;20228;-71
2021/09/12 08:41:11;;;;;;;3.17;2.80;;;24.70;98.10;;;;;;6213967;28;20198;-71
2021/09/12 08:44:17;;;;;;;2.73;2.50;;;25.00;97.20;;;;;;6213917;28;20208;-71
2021/09/12 08:47:20;;;;;;;3.23;2.93;;;25.30;95.60;;;;;;6199261;28;20276;-70
2021/09/12 08:50:26;;;;;;;2.90;2.60;;;25.60;95.40;;;;;;6213900;28;20197;-70
2021/09/12 08:53:28;;;;;;;3.40;2.53;;;25.90;94.50;;;;;;6199080;28;20236;-70
2021/09/12 08:56:30;;;;;;;3.70;2.70;;;26.20;93.00;;;;;;6197829;28;20205;-70
2021/09/12 08:59:34;;;;;;;3.53;3.22;;;26.30;92.00;;;;;;6213790;28;20224;-70
2021/09/12 09:02:38;;;;;;;3.38;3.08;;;26.20;91.50;;;;;;6213456;28;20233;-70
2021/09/12 09:05:42;;;;;;;3.00;2.80;;;26.00;91.70;;;;;;6192932;28;20239;-70
2021/09/12 09:09:04;;;;;;;2.88;2.60;;;25.70;92.40;;;;;;6196507;28;20193;-70
2021/09/12 09:12:36;;;;;;;2.65;2.45;;;25.50;93.10;;;;;;6198420;28;20200;-70
2021/09/12 09:15:41;;;;;;;3.90;3.10;;;25.70;93.30;;;;;;6211771;28;20220;-70
2021/09/12 09:18:43;;;;;;;3.50;3.20;;;25.90;92.20;;;;;;6208421;28;20197;-70
2021/09/12 09:21:48;;;;;;;3.53;2.90;;;25.80;91.80;;;;;;6195930;28;20209;-70
2021/09/12 09:24:57;;;;;;;3.08;2.80;;;25.60;91.90;;;;;;6212164;28;20657;-69
2021/09/12 09:28:06;;;;;;;3.13;2.90;;;25.50;92.20;;;;;;6198288;28;20217;-70
2021/09/12 09:31:10;;;;;;;3.17;2.92;;;25.30;92.40;;;;;;6211979;28;20198;-70
2021/09/12 09:34:20;;;;;;;3.35;3.05;;;25.00;92.90;;;;;;6196902;28;20341;-69
2021/09/12 09:37:22;;;;;;;4.20;3.03;;;25.00;92.90;;;;;;6172170;28;20214;-69
2021/09/12 09:40:24;;;;;;;3.50;3.20;;;24.90;92.70;;;;;;6209009;28;20193;-69
2021/09/12 09:43:48;;;;;;;3.30;3.00;;;24.80;93.10;;;;;;6197559;28;20213;-69
2021/09/12 09:46:53;;;;;;;3.30;3.00;;;24.80;93.30;;;;;;6195582;28;20197;-69
2021/09/12 09:50:17;;;;;;;3.90;3.60;;;24.70;93.70;;;;;;6195805;28;20216;-70
2021/09/12 09:53:20;;;;;;;5.85;3.10;;;24.60;93.50;;;;;;6212070;28;20197;-70
2021/09/12 09:56:22;;;;;;;5.33;3.20;;;24.50;94.00;;;;;;6211551;28;20216;-69
2021/09/12 09:59:26;;;;;;;3.13;2.88;;;24.60;94.30;;;;;;6195815;28;20225;-69
2021/09/12 10:02:29;;;;;;;3.00;2.80;;;24.70;94.30;;;;;;6196576;28;20347;-69
2021/09/12 10:05:33;;;;;;;3.63;3.33;;;24.70;94.00;;;;;;6197282;28;20213;-70
2021/09/12 10:08:35;;;;;;;4.65;3.67;;;24.70;93.90;;;;;;6196682;28;20293;-70
2021/09/12 10:11:48;;;;;;;3.40;3.07;;;24.60;93.90;;;;;;6179450;28;20193;-70
2021/09/12 10:14:54;;;;;;;3.67;3.33;;;24.70;94.20;;;;;;6186242;28;20193;-70
2021/09/12 10:17:58;;;;;;;3.35;3.08;;;24.80;94.00;;;;;;6203249;28;20580;-70
2021/09/12 10:21:23;;;;;;;3.88;3.30;;;24.80;94.20;;;;;;6211894;28;20566;-70
2021/09/12 10:24:25;;;;;;;4.10;3.80;;;25.00;94.20;;;;;;6196811;28;20528;-69
2021/09/12 10:27:35;;;;;;;4.43;4.03;;;25.10;93.90;;;;;;6196357;28;20194;-70
2021/09/12 10:30:40;;;;;;;4.50;4.13;;;25.20;93.90;;;;;;6196658;28;20205;-70
2021/09/12 10:33:42;;;;;;;4.63;4.22;;;25.40;93.80;;;;;;6209308;28;20196;-70
2021/09/12 10:36:45;;;;;;;4.30;4.00;;;25.50;93.30;;;;;;6196368;28;20205;-69
2021/09/12 10:39:52;;;;;;;4.72;4.32;;;25.80;93.30;;;;;;6196670;28;20189;-70
2021/09/12 10:42:54;;;;;;;4.35;3.60;;;26.00;93.00;;;;;;6172438;28;20638;-69
2021/09/12 10:46:02;;;;;;;5.07;4.60;;;26.30;93.00;;;;;;6192808;28;20186;-70
2021/09/12 10:49:06;;;;;;;4.35;4.03;;;26.60;92.50;;;;;;6195004;28;20625;-70
2021/09/12 10:52:10;;;;;;;4.70;4.30;;;27.00;91.80;;;;;;6196169;28;20716;-70
2021/09/12 10:55:12;;;;;;;4.65;4.07;;;27.40;89.20;;;;;;6194845;28;20194;-70
2021/09/12 10:58:14;;;;;;;4.22;3.92;;;27.80;88.80;;;;;;6195291;28;20205;-70
2021/09/12 11:01:30;;;;;;;4.40;4.10;;;27.80;88.30;;;;;;6195911;28;20559;-70
2021/09/12 11:04:33;;;;;;;4.70;4.30;;;27.60;87.80;;;;;;6195754;28;20614;-70
2021/09/12 11:07:56;;;;;;;4.43;4.10;;;27.50;87.90;;;;;;6178167;28;20209;-70
2021/09/12 11:10:59;;;;;;;4.30;3.90;;;27.20;87.00;;;;;;6195696;28;20186;-71
2021/09/12 11:14:01;;;;;;;4.90;4.50;;;27.10;85.30;;;;;;6211416;28;20334;-70
2021/09/12 11:17:11;;;;;;;4.47;4.07;;;27.00;87.50;;;;;;6197477;28;20650;-69
2021/09/12 11:20:14;;;;;;;4.22;3.92;;;26.90;88.40;;;;;;6195581;28;20712;-70
2021/09/12 11:23:33;;;;;;;4.53;4.18;;;27.20;89.20;;;;;;6195788;28;20316;-70
2021/09/12 11:26:43;;;;;;;4.90;4.50;;;28.00;87.10;;;;;;6194243;28;20202;-70
2021/09/12 11:29:45;;;;;;;4.93;4.53;;;28.80;82.70;;;;;;6195561;28;20243;-70
2021/09/12 11:32:51;;;;;;;4.82;4.43;;;29.20;78.80;;;;;;6195177;28;20182;-70
2021/09/12 11:36:01;;;;;;;4.97;4.53;;;29.60;79.60;;;;;;6194142;28;20232;-72
2021/09/12 11:39:06;;;;;;;6.13;4.50;;;29.70;76.00;;;;;;6194154;28;20209;-70
2021/09/12 11:42:12;;;;;;;4.63;4.22;;;29.80;76.30;;;;;;6195222;28;20212;-71
2021/09/12 11:45:15;;;;;;;4.60;4.20;;;29.80;74.90;;;;;;6178121;28;20276;-70
2021/09/12 11:48:18;;;;;;;4.57;4.22;;;30.00;75.40;;;;;;6210497;28;20196;-71
2021/09/12 11:51:33;;;;;;;3.80;3.50;;;29.50;71.20;;;;;;6194035;28;20927;-71
2021/09/12 11:54:37;;;;;;;4.20;3.90;;;29.20;72.20;;;;;;6194496;28;20204;-72
2021/09/12 11:57:40;;;;;;;4.03;3.72;;;29.40;72.60;;;;;;6173304;28;20205;-70
2021/09/12 12:00:46;;;;;;;3.90;3.60;;;29.50;67.00;;;;;;6194435;28;20213;-70
2021/09/12 12:03:50;;;;;;;3.70;3.40;;;29.70;68.50;;;;;;6194068;28;20232;-70
2021/09/12 12:06:55;;;;;;;3.10;2.90;;;29.80;66.50;;;;;;6193700;28;20237;-71
2021/09/12 12:09:57;;;;;;;3.85;3.55;;;30.10;66.00;;;;;;6194798;28;20248;-71
2021/09/12 12:13:04;;;;;;;3.88;3.58;;;30.30;66.60;;;;;;6194419;28;20193;-70
2021/09/12 12:16:06;;;;;;;4.50;3.85;;;30.50;65.00;;;;;;6227245;28;20201;-71
2021/09/12 12:19:10;;;;;;;4.03;3.50;;;30.40;64.00;;;;;;6195959;28;20696;-72
2021/09/12 12:22:13;;;;;;;3.67;3.38;;;30.60;63.60;;;;;;6193451;28;20204;-71
2021/09/12 12:25:29;;;;;;;3.63;3.33;;;31.00;65.70;;;;;;6194614;28;20197;-70
2021/09/12 12:28:31;;;;;;;4.10;3.80;;;31.20;61.60;;;;;;6194930;28;20563;-71
2021/09/12 12:31:35;;;;;;;3.90;3.60;;;30.80;60.70;;;;;;6194429;28;20213;-70
2021/09/12 12:34:52;;;;;;;3.70;3.40;;;30.40;62.20;;;;;;6194777;28;20189;-69
2021/09/12 12:37:55;;;;;;;9.90;3.40;;;30.00;63.30;;;;;;6193302;28;20214;-70
2021/09/12 12:41:06;;;;;;;3.45;3.20;;;30.20;64.30;;;;;;6194843;28;20200;-71
2021/09/12 12:44:15;;;;;;;4.35;2.80;;;30.50;63.40;;;;;;6209620;28;20240;-71
2021/09/12 12:47:29;;;;;;;3.08;2.80;;;30.80;59.60;;;;;;6209551;28;20575;-70
2021/09/12 12:50:35;;;;;;;3.25;2.95;;;31.00;59.90;;;;;;6209621;28;20193;-70
2021/09/12 12:53:40;;;;;;;3.13;2.92;;;31.30;59.50;;;;;;6192980;28;20691;-71
2021/09/12 12:56:42;;;;;;;4.30;3.00;;;31.60;60.50;;;;;;6193482;28;20584;-70
2021/09/12 12:59:50;;;;;;;5.25;3.25;;;31.80;58.20;;;;;;6194278;28;20213;-69
2021/09/12 13:02:52;;;;;;;3.75;2.95;;;31.70;58.00;;;;;;6208403;28;20718;-70
2021/09/12 13:05:58;;;;;;;3.15;2.95;;;31.90;57.40;;;;;;6184904;28;20229;-70
2021/09/12 13:09:01;;;;;;;2.80;2.60;;;31.60;58.20;;;;;;6193497;28;20630;-70
2021/09/12 13:12:08;;;;;;;3.08;2.80;;;31.20;58.00;;;;;;6198415;28;20296;-70
2021/09/12 13:15:10;;;;;;;2.55;2.35;;;31.00;58.70;;;;;;6207224;28;20200;-70
2021/09/12 13:18:14;;;;;;;3.03;2.60;;;31.30;57.70;;;;;;6197370;28;20213;-70
2021/09/12 13:21:17;;;;;;;3.30;2.40;;;32.10;56.60;;;;;;6213600;28;20808;-71
2021/09/12 13:24:20;;;;;;;2.58;2.38;;;32.70;54.20;;;;;;6213049;28;20260;-70
2021/09/12 13:27:22;;;;;;;2.75;2.53;;;32.90;54.40;;;;;;6198068;28;20205;-70
2021/09/12 13:30:25;;;;;;;2.58;2.38;;;33.10;54.40;;;;;;6197214;28;20657;-70
2021/09/12 13:33:30;;;;;;;2.60;2.40;;;33.60;53.20;;;;;;6197015;28;20288;-70
2021/09/12 13:36:33;;;;;;;3.05;2.58;;;34.30;52.10;;;;;;6196649;28;20193;-70
2021/09/12 13:39:35;;;;;;;2.30;2.20;;;35.00;51.50;;;;;;6197920;28;20190;-70
2021/09/12 13:42:38;;;;;;;2.47;2.28;;;35.50;50.60;;;;;;6198190;28;20236;-70
2021/09/12 13:45:40;;;;;;;2.65;2.45;;;35.10;50.20;;;;;;6198390;28;20649;-71
2021/09/12 13:48:42;;;;;;;2.40;2.20;;;34.20;51.30;;;;;;6197120;28;20224;-70
2021/09/12 13:51:45;;;;;;;3.00;2.20;;;33.20;53.30;;;;;;6196257;28;20204;-70
2021/09/12 13:54:47;;;;;;;2.50;2.30;;;32.40;54.40;;;;;;6195912;28;20197;-69
2021/09/12 13:57:49;;;;;;;2.53;2.33;;;32.20;53.90;;;;;;6194685;28;20213;-70
2021/09/12 14:00:51;;;;;;;2.60;2.40;;;31.50;55.00;;;;;;6196582;28;20716;-70
2021/09/12 14:03:54;;;;;;;2.60;2.40;;;30.80;57.30;;;;;;6196684;28;20225;-70
2021/09/12 14:06:56;;;;;;;3.25;2.40;;;30.20;59.20;;;;;;6197614;28;20193;-70
2021/09/12 14:09:58;;;;;;;2.55;2.35;;;29.40;61.30;;;;;;6196385;28;20190;-69
2021/09/12 14:13:00;;;;;;;2.55;2.38;;;28.80;63.60;;;;;;6197791;28;20201;-69
2021/09/12 14:16:03;;;;;;;2.55;2.35;;;28.30;65.70;;;;;;6212807;28;20486;-70
2021/09/12 14:19:05;;;;;;;3.30;2.53;;;27.90;66.70;;;;;;6205789;28;20263;-71
2021/09/12 14:22:07;;;;;;;2.97;2.78;;;27.60;68.20;;;;;;6195003;28;20201;-70
2021/09/12 14:25:09;;;;;;;2.70;2.45;;;27.30;69.40;;;;;;6196997;28;20193;-69
2021/09/12 14:28:12;;;;;;;2.83;2.63;;;26.90;70.60;;;;;;6197255;28;20649;-70
2021/09/12 14:31:18;;;;;;;2.80;2.60;;;26.80;72.70;;;;;;6197118;28;20287;-69
2021/09/12 14:34:21;;;;;;;2.75;2.55;;;26.70;73.50;;;;;;6197410;28;20284;-69
2021/09/12 14:37:23;;;;;;;2.78;2.58;;;26.60;74.30;;;;;;6187775;28;20225;-70
2021/09/12 14:40:27;;;;;;;2.38;2.22;;;26.80;74.50;;;;;;6193128;28;20562;-70
2021/09/12 14:43:33;;;;;;;3.20;2.72;;;27.00;72.20;;;;;;6196735;28;20193;-69
2021/09/12 14:46:36;;;;;;;2.63;2.42;;;27.00;70.40;;;;;;6211821;28;20197;-69
2021/09/12 14:49:38;;;;;;;2.45;2.25;;;27.10;69.40;;;;;;6196658;28;20193;-69
2021/09/12 14:52:41;;;;;;;2.25;2.05;;;26.80;68.90;;;;;;6196643;28;20200;-69
2021/09/12 14:55:43;;;;;;;2.78;1.88;;;26.80;69.70;;;;;;6195180;28;20555;-69
2021/09/12 14:58:46;;;;;;;3.13;2.45;;;27.00;69.00;;;;;;6211288;28;20225;-70
2021/09/12 15:01:49;;;;;;;2.42;2.22;;;27.20;67.90;;;;;;6194930;28;20209;-70
2021/09/12 15:04:52;;;;;;;2.33;2.13;;;27.10;67.20;;;;;;6196059;28;20200;-69
2021/09/12 15:07:55;;;;;;;2.40;2.20;;;27.00;66.70;;;;;;6196120;28;20201;-69
2021/09/12 15:10:57;;;;;;;2.05;1.95;;;26.80;67.30;;;;;;6196130;28;20189;-69
2021/09/12 15:13:59;;;;;;;2.65;2.00;;;26.60;68.20;;;;;;6196225;28;20196;-69
2021/09/12 15:17:02;;;;;;;1.88;1.77;;;26.40;69.30;;;;;;6224604;28;20316;-69
2021/09/12 15:20:05;;;;;;;3.53;2.00;;;26.30;68.90;;;;;;6194715;28;20693;-69
2021/09/12 15:23:08;;;;;;;2.05;1.95;;;26.20;68.70;;;;;;6195800;28;20648;-69
2021/09/12 15:26:10;;;;;;;2.00;1.90;;;26.10;69.00;;;;;;6210734;28;20186;-69
2021/09/12 15:29:12;;;;;;;2.22;2.03;;;25.90;70.40;;;;;;6195950;28;20193;-69
2021/09/12 15:32:14;;;;;;;2.28;2.08;;;25.90;71.10;;;;;;6195294;28;20208;-70
2021/09/12 15:35:17;;;;;;;2.03;1.92;;;25.80;71.40;;;;;;6195510;28;20806;-69
2021/09/12 15:38:20;;;;;;;2.10;2.00;;;25.70;71.50;;;;;;6210658;28;20221;-69
2021/09/12 15:41:23;;;;;;;2.15;1.92;;;25.50;72.50;;;;;;6195407;28;20654;-69
2021/09/12 15:44:27;;;;;;;2.80;2.20;;;25.20;74.00;;;;;;6195439;28;20217;-69